Latest Coastal Weather Observations for Broome

IDW60701

Issued at 1:15 pm WST Wednesday 3 September 2014 (issued every 10 minutes, with the page automatically refreshed every 10 minutes)

About coastal observations | Map of coastal stations | Coastal observations for WA | Marine services | Other Formats
Station Details ID: 003003 Name: BROOME AIRPORT Lat: -17.95 Lon: 122.24 Height: 7.42 m
Data from the previous 72 hours. | See also: Recent months at Broome
Date/Time
WST
Temp

°C
Wind Pressure Rain
since 9am
mm
Weather Cloud Vis
km
Sea
Height
m
Swell
Dir
 
Speed
knots
Gust
knots
hPa Trend Height
m
Period
s
Dir
03/01:00pm 29.4 WNW 8 11 1013.5 - 0.0 - - 10 - - - -
03/12:30pm 29.1 W 8 11 1013.8 - 0.0 - - 10 - - - -
03/12:00pm 29.7 WNW 7 9 1014.1 F 0.0 Smoke Clear 40 - - - -
03/11:30am 29.4 W 8 10 1014.7 - 0.0 - - 10 - - - -
03/11:00am 29.1 W 7 9 1015.1 - 0.0 - - 10 - - - -
03/10:30am 28.8 W 7 8 1015.4 - 0.0 - - 10 - - - -
03/10:00am 28.5 WNW 6 8 1015.9 - 0.0 - - 10 - - - -
03/09:30am 28.0 W 5 7 1016.2 - 0.0 - - 10 - - - -
03/09:00am 26.9 W 5 7 1016.2 F 0.2 Smoke Clear 40 - - - -
03/08:30am 25.6 WNW 4 6 1016.3 - 0.2 - - 10 - - - -
03/08:00am 23.9 NW 4 5 1016.3 - 0.2 - - 10 - - - -
03/07:30am 21.4 NW 2 3 1016.1 - 0.2 - - 10 - - - -
03/07:00am 18.7 CALM 0 0 1016.1 - 0.2 - - 10 - - - -
03/06:30am 17.5 NNW 3 5 1016.0 - 0.2 - Mostly clear 10 - - - -
03/06:00am 16.5 N 5 7 1015.9 R 0.2 Distant fog Mostly clear 30 - - - -
03/05:51am 17.0 NNW 6 7 1016.0 - 0.0 Fog Partly cloudy 4 - - - -
03/05:39am 16.8 N 5 7 1015.9 - 0.0 Fog Partly cloudy 2 - - - -
03/05:32am 16.4 N 5 6 1016.0 - 0.0 Fog Mostly clear 0.9 - - - -
03/05:30am 16.5 N 5 6 1015.9 - 0.0 - Partly cloudy 1 - - - -
03/05:15am 16.2 N 6 8 1015.7 - 0.0 - Partly cloudy 6 - - - -
03/05:12am 16.3 N 7 8 1015.7 - 0.0 - Partly cloudy 10 - - - -
03/05:03am 16.1 N 7 9 1015.5 - 0.0 - Partly cloudy 1 - - - -
03/05:00am 15.7 N 6 8 1015.5 - 0.0 - Partly cloudy 0.4 - - - -
03/04:48am 15.6 N 6 8 1015.3 - 0.0 - Partly cloudy 0.9 - - - -
03/04:42am 14.9 N 6 9 1015.3 - 0.0 - Partly cloudy 1 - - - -
03/04:32am 14.0 N 7 12 1015.2 - 0.0 - Partly cloudy 0.7 - - - -
03/04:30am 13.9 N 9 12 1015.2 - 0.0 - Partly cloudy 0.9 - - - -
03/04:24am 13.4 SW 1 8 1014.8 - 0.0 - Partly cloudy 5 - - - -
03/04:17am 13.6 CALM 0 0 1014.5 - 0.0 - - 10 - - - -
03/04:05am 13.7 ESE 0 0 1014.4 - 0.0 - - 1 - - - -
03/04:00am 14.0 CALM 0 - 1014.3 - 0.0 - - 0.8 - - - -
03/03:57am 14.6 CALM 0 - 1014.3 - 0.0 - - 0.9 - - - -
03/03:56am 14.6 CALM 0 - 1014.3 - 0.0 - - 1 - - - -
03/03:53am 15.0 CALM 0 - 1014.3 - 0.0 - - 5 - - - -
03/03:35am 15.8 CALM 0 0 1014.3 - 0.0 - Partly cloudy 8 - - - -
03/03:30am 16.0 CALM 0 - 1014.3 - 0.0 - Partly cloudy 3 - - - -
03/03:23am 15.7 CALM 0 - 1014.3 - 0.0 - Partly cloudy 1 - - - -
03/03:00am 15.2 CALM 0 - 1014.5 - 0.0 - Cloudy 0.1 - - - -
03/02:40am 15.3 CALM 0 - 1014.8 - 0.0 - Cloudy 0.1 - - - -
03/02:37am 15.3 CALM 0 0 1014.8 - 0.0 - Cloudy 0.1 - - - -
03/02:30am 15.5 CALM 0 - 1014.7 - 0.0 - Cloudy 0.1 - - - -
03/02:00am 15.5 CALM 0 - 1014.9 - 0.0 - Cloudy 0.1 - - - -
03/01:30am 15.1 CALM 0 - 1014.7 - 0.0 - Cloudy 0.1 - - - -
03/01:00am 14.9 CALM 0 - 1015.0 - 0.0 - Cloudy 0.2 - - - -
03/12:30am 14.6 CALM 0 - 1015.2 - 0.0 - Partly cloudy 0.2 - - - -
03/12:00am 14.9 CALM 0 0 1015.3 - 0.0 - Cloudy 0.2 - - - -
 
Date/Time
WST
Temp

°C
Wind Pressure Rain
since 9am
mm
Weather Cloud Vis
km
Sea
Height
m
Swell
Dir
 
Speed
knots
Gust
knots
hPa Trend Height
m
Period
s
Dir
02/11:38pm 15.1 CALM 0 - 1015.5 - 0.0 - Partly cloudy 0.1 - - - -
02/11:37pm 15.1 CALM 0 - 1015.5 - 0.0 - Partly cloudy 0.1 - - - -
02/11:30pm 15.5 CALM 0 - 1015.5 - 0.0 - Partly cloudy 0.3 - - - -
02/11:24pm 16.4 CALM 0 - 1015.5 - 0.0 - Partly cloudy 0.2 - - - -
02/11:06pm 16.6 CALM 0 - 1015.5 - 0.0 - - 0.7 - - - -
02/11:01pm 16.8 CALM 0 - 1015.6 - 0.0 - - 4 - - - -
02/11:00pm 16.6 CALM 0 0 1015.5 - 0.0 - - 10 - - - -
02/10:58pm 16.6 CALM 0 0 1015.5 - 0.0 - - 10 - - - -
02/10:38pm 17.4 CALM 0 - 1015.6 - 0.0 - - 2 - - - -
02/10:30pm 18.2 CALM 0 0 1015.6 - 0.0 - - 10 - - - -
02/10:00pm 18.1 CALM 0 0 1015.5 - 0.0 - - 10 - - - -
02/09:30pm 18.8 SW 3 4 1015.5 - 0.0 - - 10 - - - -
02/09:00pm 19.3 SSW 3 6 1015.4 R 0.0 Smoke Clear 30 - - - -
02/08:30pm 19.8 W 1 4 1015.3 - 0.0 - - 10 - - - -
02/08:00pm 20.8 WNW 1 4 1015.0 - 0.0 - - 10 - - - -
02/07:30pm 21.4 WNW 3 4 1014.6 - 0.0 - - 10 - - - -
02/07:00pm 21.7 WNW 2 6 1014.2 - 0.0 - - 10 - - - -
02/06:30pm 23.0 W 4 6 1014.0 - 0.0 - - 10 - - - -
02/06:00pm 23.4 NW 6 8 1013.6 R 0.0 Smoke Clear 30 - - - -
02/05:30pm 24.3 NW 7 10 1013.2 - 0.0 - Cloudy 10 - - - -
02/05:00pm 25.5 NW 9 13 1013.0 - 0.0 - Partly cloudy 10 - - - -
02/04:30pm 26.4 WNW 9 13 1012.8 - 0.0 - - 10 - - - -
02/04:00pm 27.0 NW 10 13 1012.7 - 0.0 - - 10 - - - -
02/03:30pm 27.1 WNW 11 15 1012.5 - 0.0 - - 10 - - - -
02/03:00pm 27.3 WNW 9 13 1012.5 R 0.0 Smoke Clear 30 - - - -
02/02:30pm 27.8 WNW 11 15 1012.5 - 0.0 - - 10 - - - -
02/02:00pm 28.6 WNW 11 16 1012.8 - 0.0 - - 10 - - - -
02/01:30pm 31.8 WNW 11 14 1012.8 - 0.0 - - 10 - - - -
02/01:26pm 32.9 NW 11 13 1012.8 - 0.0 - - 10 - - - -
02/01:00pm 37.9 NE 8 11 1013.1 - 0.0 - - 10 - - - -
02/12:30pm 36.7 ENE 10 18 1013.5 - 0.0 - - 10 - - - -
02/12:00pm 35.9 ENE 9 13 1013.9 F 0.0 Smoke Clear 30 - - - -
02/11:30am 34.1 ESE 7 12 1014.6 - 0.0 - - 10 - - - -
02/11:00am 32.2 ESE 6 9 1015.3 - 0.0 - - 10 - - - -
02/10:30am 30.0 SE 6 8 1015.9 - 0.0 - - 10 - - - -
02/10:00am 29.3 ESE 5 6 1016.2 - 0.0 - - 10 - - - -
02/09:30am 26.3 SE 5 7 1016.5 - 0.0 - - 10 - - - -
02/09:00am 23.9 ESE 6 8 1016.4 F 0.2 Smoke Clear 25 - - - -
02/08:30am 21.8 ESE 5 7 1016.5 - 0.2 - - 10 - - - -
02/08:00am 19.6 E 4 5 1016.3 - 0.2 - - 10 - - - -
02/07:30am 17.2 E 4 7 1016.3 - 0.2 - Partly cloudy 10 - - - -
02/07:24am 17.1 ENE 1 6 1016.2 - 0.2 - Partly cloudy 10 - - - -
02/07:11am 16.1 ENE 1 4 1015.9 - 0.2 - Mostly clear 10 - - - -
02/07:05am 15.4 NE 3 4 1015.8 - 0.2 - Mostly clear 4 - - - -
02/07:00am 15.1 NE 3 5 1015.8 - 0.2 Fog Cloudy 0.2 - - - -
02/06:52am 14.9 NE 3 5 1015.7 - 0.2 - Cloudy 0.2 - - - -
02/06:30am 14.7 NNE 5 6 1015.5 - 0.0 Fog Cloudy 0.1 - - - -
02/06:03am 14.9 NNE 3 4 1015.3 - 0.0 - Cloudy 0.1 - - - -
02/06:00am 14.9 NNE 3 - 1015.2 F - Fog Fog 0.1 - - - -
02/05:58am 14.9 NNE 3 4 1015.3 - 0.0 Fog Cloudy 0.1 - - - -
02/05:30am 15.0 CALM 0 - 1014.9 - 0.0 Fog Cloudy 0.1 - - - -
02/05:21am 16.2 CALM 0 - 1014.9 - 0.0 - Cloudy 0.1 - - - -
02/05:20am 16.1 CALM 0 0 1014.8 - 0.0 - Cloudy 0.1 - - - -
02/05:00am 18.5 SE 3 5 1014.7 - 0.0 - Cloudy 0.1 - - - -
02/04:30am 18.7 SE 4 7 1014.6 - 0.0 - Cloudy 0.1 - - - -
02/04:00am 18.6 SE 5 7 1014.5 - 0.0 - Cloudy 0.1 - - - -
02/03:30am 14.8 CALM 0 - 1014.2 - 0.0 - Cloudy 0.1 - - - -
02/03:00am 13.7 CALM 0 - 1014.1 - 0.0 - Cloudy 0 - - - -
02/02:30am 12.9 CALM 0 - 1014.1 - 0.0 - Cloudy 0.1 - - - -
02/02:13am 13.0 NNE 2 3 1014.1 - 0.0 - Partly cloudy 0.7 - - - -
02/02:07am 13.0 NNE 2 3 1014.1 - 0.0 - Partly cloudy 5 - - - -
02/02:00am 13.3 NNE 2 3 1014.1 - 0.0 - Partly cloudy 10 - - - -
02/01:50am 13.0 NNE 4 5 1014.2 - 0.0 - - 10 - - - -
02/01:30am 12.9 CALM 0 - 1014.3 - 0.0 - - 4 - - - -
02/01:28am 12.9 CALM 0 0 1014.3 - 0.0 - - 6 - - - -
02/01:00am 13.9 CALM 0 0 1014.6 - 0.0 - - 10 - - - -
02/12:30am 14.7 CALM 0 0 1014.9 - 0.0 - - 10 - - - -
02/12:17am 14.9 CALM 0 0 1015.1 - 0.0 - - 10 - - - -
02/12:05am 14.3 CALM 0 0 1015.2 - 0.0 - - 6 - - - -
02/12:00am 14.7 CALM 0 0 1015.2 - 0.0 - - 10 - - - -
 
Date/Time
WST
Temp

°C
Wind Pressure Rain
since 9am
mm
Weather Cloud Vis
km
Sea
Height
m
Swell
Dir
 
Speed
knots
Gust
knots
hPa Trend Height
m
Period
s
Dir
01/11:30pm 15.1 CALM 0 0 1015.4 - 0.0 - - 10 - - - -
01/11:00pm 15.8 CALM 0 0 1015.5 - 0.0 - - 10 - - - -
01/10:30pm 17.1 N 3 4 1015.5 - 0.0 - - 10 - - - -
01/10:00pm 16.9 N 3 5 1015.6 - 0.0 - - 10 - - - -
01/09:30pm 17.6 CALM 0 0 1015.6 - 0.0 - - 10 - - - -
01/09:00pm 17.7 N 4 5 1015.4 F 0.0 Smoke Clear 30 - - - -
01/08:30pm 19.6 NNW 4 5 1015.4 - 0.0 - - 10 - - - -
01/08:00pm 20.2 WNW 3 4 1015.3 - 0.0 - - 10 - - - -
01/07:30pm 21.5 NW 4 5 1014.8 - 0.0 - - 10 - - - -
01/07:00pm 21.7 NW 2 5 1014.5 - 0.0 - - 10 - - - -
01/06:30pm 22.1 NNW 3 5 1014.1 - 0.0 - - 10 - - - -
01/06:00pm 23.0 NNW 6 8 1013.7 R 0.0 Smoke Clear 30 - - - -
01/05:30pm 23.9 NNW 7 9 1013.5 - 0.0 - Partly cloudy 10 - - - -
01/05:00pm 24.9 NW 8 13 1013.2 - 0.0 - Partly cloudy 10 - - - -
01/04:30pm 25.6 WNW 9 13 1013.0 - 0.0 - - 10 - - - -
01/04:00pm 26.0 NW 10 14 1012.7 - 0.0 - - 10 - - - -
01/03:30pm 26.3 NW 10 16 1012.7 - 0.0 - - 10 - - - -
01/03:00pm 27.5 W 12 16 1012.3 S 0.0 Smoke Clear 30 - - - -
01/02:30pm 26.7 W 13 16 1012.5 - 0.0 - - 10 - - - -
01/02:00pm 27.7 W 13 16 1012.5 - 0.0 - - 10 - - - -
01/01:30pm 27.2 W 12 16 1012.9 - 0.0 - - 10 - - - -
01/01:00pm 27.8 W 11 17 1013.3 - 0.0 - - 10 - - - -
01/12:30pm 28.3 W 11 14 1013.9 - 0.0 - - 10 - - - -
01/12:00pm 27.8 W 10 13 1014.2 R 0.0 Smoke Clear 30 - - - -
01/11:30am 27.6 W 9 11 1014.8 - 0.0 - - 10 - - - -
01/11:00am 29.4 W 7 9 1015.2 - 0.0 - - 10 - - - -
01/10:30am 30.2 SSW 6 8 1015.6 - 0.0 - - 10 - - - -
01/10:00am 28.4 SSE 4 6 1015.8 - 0.0 - - 10 - - - -
01/09:30am 26.3 S 5 8 1015.8 - 0.0 - - 10 - - - -
01/09:00am 24.1 ESE 5 6 1015.6 F 0.2 Smoke Clear 30 - - - -
01/08:30am 22.9 ESE 5 6 1015.6 - 0.0 - - 10 - - - -
01/08:00am 20.3 E 2 4 1015.3 - 0.0 - - 10 - - - -
01/07:30am 18.0 CALM 0 0 1015.1 - 0.0 - - 10 - - - -
01/07:00am 15.9 CALM 0 0 1014.9 - 0.0 - - 10 - - - -
01/06:30am 12.9 CALM 0 0 1014.7 - 0.0 - - 10 - - - -
01/06:00am 11.9 CALM 0 0 1014.4 F 0.0 Smoke Clear 20 - - - -
01/05:30am 12.3 CALM 0 0 1014.3 - 0.0 - - 10 - - - -
01/05:00am 12.7 NNE 2 3 1013.9 - 0.0 - - 10 - - - -
01/04:30am 13.0 NNE 5 6 1013.8 - 0.0 - - 10 - - - -
01/04:21am 12.9 NNE 5 6 1013.8 - 0.0 - - 10 - - - -
01/04:07am 12.8 N 5 6 1013.8 - 0.0 - Partly cloudy 4 - - - -
01/04:04am 12.7 N 5 6 1013.8 - 0.0 - Partly cloudy 1 - - - -
01/04:00am 13.1 N 4 6 1013.7 - 0.0 - Partly cloudy 0.5 - - - -
01/03:30am 13.9 CALM 0 - 1013.6 - 0.0 - Cloudy 0.3 - - - -
01/03:01am 14.2 N 1 3 1013.6 - 0.0 - Partly cloudy 0.8 - - - -
01/03:00am 14.3 N 1 3 1013.5 - 0.0 - Cloudy 2 - - - -
01/02:48am 14.0 N 3 3 1013.6 - 0.0 - Partly cloudy 10 - - - -
01/02:37am 13.3 N 3 4 1013.6 - 0.0 - - 9 - - - -
01/02:30am 13.3 NNE 4 4 1013.6 - 0.0 - - 8 - - - -
01/02:22am 13.1 NNE 5 6 1013.6 - 0.0 - - 6 - - - -
01/02:00am 13.6 CALM 0 0 1013.6 - 0.0 - - 10 - - - -
01/01:36am 13.5 CALM 0 0 1013.5 - 0.0 - - 10 - - - -
01/01:32am 13.9 CALM 0 0 1013.5 - 0.0 - - 10 - - - -
01/01:29am 13.8 CALM 0 0 1013.5 - 0.0 - - 10 - - - -
01/01:26am 13.9 CALM 0 - 1013.5 - 0.0 - - 10 - - - -
01/01:07am 13.7 CALM 0 - 1013.6 - 0.0 - - 4 - - - -
01/01:00am 14.1 CALM 0 0 1013.6 - 0.0 - - 10 - - - -
01/12:54am 13.9 CALM 0 - 1013.5 - 0.0 - - 1 - - - -
01/12:41am 14.1 CALM 0 - 1013.6 - 0.0 - Partly cloudy 0.3 - - - -
01/12:30am 14.5 CALM 0 - 1013.7 - 0.0 - Partly cloudy 0.1 - - - -
01/12:23am 14.3 CALM 0 - 1013.7 - 0.0 - Partly cloudy 0.2 - - - -
01/12:19am 14.5 CALM 0 - 1013.7 - 0.0 - Partly cloudy 1 - - - -
01/12:13am 14.4 CALM 0 - 1013.7 - 0.0 - Partly cloudy 0.9 - - - -
01/12:11am 14.4 CALM 0 - 1013.8 - 0.0 - Partly cloudy 1 - - - -
01/12:06am 14.2 CALM 0 - 1013.8 - 0.0 - Partly cloudy 4 - - - -
01/12:00am 15.0 CALM 0 0 1013.7 - 0.0 - - 10 - - - -
 
Date/Time
WST
Temp

°C
Wind Pressure Rain
since 9am
mm
Weather Cloud Vis
km
Sea
Height
m
Swell
Dir
 
Speed
knots
Gust
knots
hPa Trend Height
m
Period
s
Dir
31/11:30pm 15.1 CALM 0 0 1013.9 - 0.0 - - 10 - - - -
31/11:00pm 16.3 CALM 0 0 1014.2 - 0.0 - - 10 - - - -
31/10:30pm 19.3 S 2 3 1014.2 - 0.0 - - 10 - - - -
31/10:00pm 20.7 S 3 4 1014.2 - 0.0 - - 10 - - - -
31/09:30pm 20.8 SW 3 4 1014.1 - 0.0 - - 10 - - - -
31/09:00pm 20.7 WNW 4 6 1013.9 F 0.0 Smoke Clear 30 - - - -
31/08:30pm 21.3 WNW 4 5 1013.9 - 0.0 - - 10 - - - -
31/08:00pm 21.9 NW 5 7 1013.7 - 0.0 - - 10 - - - -
31/07:30pm 22.1 NNW 5 8 1013.4 - 0.0 - - 10 - - - -
31/07:00pm 22.4 NW 7 8 1013.1 - 0.0 - - 10 - - - -
31/06:30pm 22.8 NNW 6 8 1012.9 - 0.0 - - 10 - - - -
31/06:00pm 23.7 NNW 6 7 1012.5 F 0.0 Smoke Clear 35 - - - -
31/05:30pm 25.5 NW 6 8 1012.4 - 0.0 - - 10 - - - -
31/05:00pm 27.0 NW 6 9 1012.2 - 0.0 - - 10 - - - -
31/04:30pm 28.2 WNW 8 12 1012.1 - 0.0 - - 10 - - - -
31/04:00pm 29.3 WNW 8 12 1011.9 - 0.0 - - 10 - - - -
31/03:30pm 29.7 WNW 9 13 1011.8 - 0.0 - - 10 - - - -
31/03:00pm 28.9 NW 12 18 1011.7 R 0.0 Smoke Clear 30 - - - -
31/02:30pm 29.4 NW 12 17 1011.6 - 0.0 - - 10 - - - -
31/02:00pm 32.0 S 5 8 1011.5 - 0.0 - - 10 - - - -
31/01:30pm 32.3 SSE 9 12 1011.9 - 0.0 - - 10 - - - -

Other Formats:

Comma delimited format used in spreadsheet applications
http://www.bom.gov.au/fwo/IDW60701/IDW60701.94203.axf

JavaScript Object Notation format (JSON) in row-major order
http://www.bom.gov.au/fwo/IDW60701/IDW60701.94203.json